CYVR/YVR METAR and TAF weather

Enter ICAO airport designator
Station Type Date Time Source
CYVR METAR 2020/08/10 19:00 UTC NOAA

CYVR 101900Z 28013KT 20SM FEW018 FEW160 20/15 A3010 RMK CU1AC1 SLP194 DENSITY ALT 400FT


Station Type Date Time Source
CYVR Decoded METAR 2020/08/10 19:00 UTC NOAA

Vancouver International Air-Port, B. C., Canada (CYVR) 49-11N 123-10W 2M
Aug 10, 2020 - 03:00 PM EDT / 2020.08.10 1900 UTC
Wind: from the W (280 degrees) at 15 MPH (13 KT):0
Visibility: 20 mile(s):0
Sky conditions: mostly clear
Temperature: 68 F (20 C)
Dew Point: 59 F (15 C)
Relative Humidity: 72%
Pressure (altimeter): 30.1 in. Hg (1019 hPa)
ob: CYVR 101900Z 28013KT 20SM FEW018 FEW160 20/15 A3010 RMK CU1AC1 SLP194 DENSITY ALT 400FT
cycle: 19

Station Type Date Time Source
CYVR TAF 2020/08/10 18:39 UTC NOAA

TAF CYVR 101738Z 1018/1124 28008KT P6SM SCT020 SCT050
TEMPO 1018/1019 BKN020 BKN050
FM102200 28012KT P6SM FEW030 FEW060
BECMG 1108/1110 VRB03KT
FM111200 VRB03KT P6SM SCT015 BKN050
BECMG 1116/1118 28008KT
FM112100 25008KT P6SM FEW030 SCT050
RMK NXT FCST BY 102100Z

Example: see airport list